Time;durP1;ratioP1;P1;durP2;ratioP2;P2;SDS_P1;SDS_P2;PMS_P1;PMS_P2;Temp;Humidity;BMP_temperature;BMP_pressure;BME280_temperature;BME280_humidity;BME280_pressure;Samples;Min_cycle;Max_cycle;Signal;HPM_P1;HPM_P2
2021/12/11 00:00:18;;;;;;;83.18;31.30;;;;;;;;;;2367841;56;21050;-72
2021/12/11 00:02:55;;;;;;;83.60;29.85;;;;;;;;;;2368683;56;21046;-73
2021/12/11 00:05:22;;;;;;;90.47;31.00;;;;;;;;;;2368608;56;21046;-74
2021/12/11 00:07:49;;;;;;;88.22;31.98;;;;;;;;;;2367213;56;21676;-71
2021/12/11 00:10:17;;;;;;;95.65;33.15;;;;;;;;;;2366515;56;21605;-71
2021/12/11 00:12:47;;;;;;;92.18;31.60;;;;;;;;;;2368594;56;21524;-71
2021/12/11 00:15:17;;;;;;;90.35;32.72;;;;;;;;;;2368587;56;21058;-70
2021/12/11 00:17:45;;;;;;;90.25;32.05;;;;;;;;;;2367619;56;21030;-70
2021/12/11 00:20:16;;;;;;;97.32;32.38;;;;;;;;;;2368060;56;21121;-72
2021/12/11 00:22:43;;;;;;;90.75;30.52;;;;;;;;;;2368045;56;21042;-72
2021/12/11 00:25:11;;;;;;;91.07;32.90;;;;;;;;;;2368653;56;21062;-71
2021/12/11 00:27:39;;;;;;;86.47;33.58;;;;;;;;;;2368609;56;21049;-72
2021/12/11 00:30:08;;;;;;;97.18;32.55;;;;;;;;;;2368339;56;21054;-72
2021/12/11 00:32:35;;;;;;;81.75;31.02;;;;;;;;;;2372172;53;21183;-71
2021/12/11 00:35:08;;;;;;;88.10;31.20;;;;;;;;;;2368909;56;21042;-72
2021/12/11 00:37:35;;;;;;;79.62;29.98;;;;;;;;;;2369169;56;21137;-72
2021/12/11 00:40:05;;;;;;;76.93;28.55;;;;;;;;;;2368393;56;21054;-72
2021/12/11 00:42:34;;;;;;;85.75;31.50;;;;;;;;;;2368666;56;21564;-72
2021/12/11 00:45:02;;;;;;;86.90;32.22;;;;;;;;;;2368357;56;21042;-72
2021/12/11 00:47:31;;;;;;;85.90;30.62;;;;;;;;;;2368675;56;21628;-72
2021/12/11 00:49:59;;;;;;;70.82;28.33;;;;;;;;;;2368406;56;21059;-72
2021/12/11 00:52:34;;;;;;;88.40;31.80;;;;;;;;;;2368839;56;21065;-72
2021/12/11 00:55:02;;;;;;;88.18;31.73;;;;;;;;;;2368613;56;21043;-72
2021/12/11 00:57:29;;;;;;;74.97;29.77;;;;;;;;;;2368606;56;21109;-72
2021/12/11 01:00:00;;;;;;;87.57;32.33;;;;;;;;;;2368655;56;21085;-72
2021/12/11 01:02:27;;;;;;;84.25;30.98;;;;;;;;;;2368750;56;21050;-72
2021/12/11 01:04:54;;;;;;;85.38;30.95;;;;;;;;;;2368987;56;21050;-72
2021/12/11 01:07:30;;;;;;;82.62;31.48;;;;;;;;;;2368519;56;21117;-72
2021/12/11 01:10:00;;;;;;;76.62;29.17;;;;;;;;;;2368511;56;21046;-72
2021/12/11 01:12:36;;;;;;;88.22;33.90;;;;;;;;;;2368864;56;21141;-72
2021/12/11 01:15:13;;;;;;;86.22;29.75;;;;;;;;;;2368667;56;21130;-72
2021/12/11 01:17:48;;;;;;;82.47;29.90;;;;;;;;;;2369057;56;21050;-72
2021/12/11 01:20:18;;;;;;;93.35;33.63;;;;;;;;;;2367775;56;21173;-72
2021/12/11 01:22:46;;;;;;;90.60;33.22;;;;;;;;;;2368637;56;21593;-72
2021/12/11 01:25:14;;;;;;;88.10;30.05;;;;;;;;;;2368534;56;21077;-72
2021/12/11 01:27:43;;;;;;;90.60;33.03;;;;;;;;;;2369030;56;21042;-72
2021/12/11 01:30:13;;;;;;;87.00;33.03;;;;;;;;;;2368174;56;21201;-72
2021/12/11 01:32:40;;;;;;;82.15;30.65;;;;;;;;;;2368921;56;22139;-72
2021/12/11 01:35:09;;;;;;;92.45;34.40;;;;;;;;;;2368822;56;21042;-72
2021/12/11 01:37:37;;;;;;;85.00;31.40;;;;;;;;;;2368822;56;21620;-72
2021/12/11 01:40:06;;;;;;;85.85;30.10;;;;;;;;;;2443995;53;21034;-72
2021/12/11 01:42:33;;;;;;;86.10;31.08;;;;;;;;;;2368754;56;21050;-72
2021/12/11 01:45:01;;;;;;;84.90;30.75;;;;;;;;;;2367664;56;21137;-72
2021/12/11 01:47:31;;;;;;;77.18;30.35;;;;;;;;;;2367713;56;21604;-72
2021/12/11 01:50:01;;;;;;;76.18;30.58;;;;;;;;;;2368043;56;21549;-72
2021/12/11 01:52:35;;;;;;;80.25;29.02;;;;;;;;;;2368875;56;21058;-72
2021/12/11 01:55:07;;;;;;;82.78;29.33;;;;;;;;;;2368810;56;21141;-72
2021/12/11 01:57:34;;;;;;;75.80;27.58;;;;;;;;;;2415806;53;21054;-72
2021/12/11 02:00:05;;;;;;;84.47;30.27;;;;;;;;;;2367901;56;21050;-72
2021/12/11 02:02:33;;;;;;;87.30;31.65;;;;;;;;;;2368643;56;21101;-72
2021/12/11 02:05:01;;;;;;;85.18;31.52;;;;;;;;;;2368522;56;21062;-72
2021/12/11 02:07:29;;;;;;;81.35;30.88;;;;;;;;;;2368812;56;21508;-72
2021/12/11 02:10:00;;;;;;;87.37;30.20;;;;;;;;;;2368088;56;21698;-72
2021/12/11 02:12:31;;;;;;;87.93;29.83;;;;;;;;;;2518684;53;21046;-72
2021/12/11 02:15:01;;;;;;;78.80;28.35;;;;;;;;;;2368758;56;21090;-72
2021/12/11 02:17:29;;;;;;;83.28;31.10;;;;;;;;;;2367867;56;21110;-72
2021/12/11 02:19:58;;;;;;;75.97;31.02;;;;;;;;;;2368268;56;21038;-71
2021/12/11 02:22:26;;;;;;;76.22;29.15;;;;;;;;;;2368581;56;21135;-72
2021/12/11 02:24:56;;;;;;;82.72;30.27;;;;;;;;;;2368498;56;21050;-72
2021/12/11 02:27:24;;;;;;;85.93;32.28;;;;;;;;;;2589211;52;21026;-72
2021/12/11 02:29:53;;;;;;;77.70;29.00;;;;;;;;;;2367850;56;21086;-72
2021/12/11 02:32:29;;;;;;;74.87;28.23;;;;;;;;;;2372383;53;21126;-72
2021/12/11 02:35:01;;;;;;;79.40;29.20;;;;;;;;;;2368373;56;21058;-72
2021/12/11 02:37:36;;;;;;;83.50;30.67;;;;;;;;;;2369004;56;21141;-72
2021/12/11 02:40:06;;;;;;;82.93;30.40;;;;;;;;;;2367720;56;21105;-72
2021/12/11 02:42:37;;;;;;;82.18;31.17;;;;;;;;;;2368736;56;21050;-71
2021/12/11 02:45:06;;;;;;;75.62;31.40;;;;;;;;;;2367760;56;21073;-72
2021/12/11 02:47:35;;;;;;;86.55;31.37;;;;;;;;;;2368855;56;21121;-72
2021/12/11 02:50:06;;;;;;;75.82;27.50;;;;;;;;;;2368116;56;21628;-72
2021/12/11 02:52:37;;;;;;;70.55;27.80;;;;;;;;;;2368306;56;22117;-72
2021/12/11 02:55:07;;;;;;;74.03;29.15;;;;;;;;;;2369016;56;21038;-72
2021/12/11 02:57:37;;;;;;;71.87;29.23;;;;;;;;;;2368744;56;21093;-72
2021/12/11 03:00:13;;;;;;;88.68;31.83;;;;;;;;;;2368054;56;21568;-72
2021/12/11 03:02:46;;;;;;;71.37;29.10;;;;;;;;;;2368758;56;21054;-72
2021/12/11 03:05:16;;;;;;;83.50;30.85;;;;;;;;;;2369143;56;21125;-72
2021/12/11 03:07:50;;;;;;;88.45;32.75;;;;;;;;;;2368483;56;21105;-72
2021/12/11 03:10:19;;;;;;;75.40;29.87;;;;;;;;;;2368431;56;21141;-72
2021/12/11 03:12:46;;;;;;;77.12;29.35;;;;;;;;;;2368790;56;21085;-72
2021/12/11 03:15:14;;;;;;;85.28;30.45;;;;;;;;;;2368592;56;21581;-72
2021/12/11 03:17:41;;;;;;;83.32;29.75;;;;;;;;;;2368790;56;21125;-72
2021/12/11 03:20:12;;;;;;;84.47;30.52;;;;;;;;;;2368142;56;21073;-72
2021/12/11 03:22:41;;;;;;;79.82;29.95;;;;;;;;;;2368990;56;21101;-72
2021/12/11 03:25:10;;;;;;;75.12;29.35;;;;;;;;;;2368680;56;21097;-72
2021/12/11 03:27:37;;;;;;;75.60;29.58;;;;;;;;;;2368881;56;21285;-72
2021/12/11 03:30:06;;;;;;;67.20;27.20;;;;;;;;;;2368081;56;21112;-72
2021/12/11 03:32:34;;;;;;;77.03;28.87;;;;;;;;;;2368744;56;21399;-72
2021/12/11 03:35:01;;;;;;;84.18;31.45;;;;;;;;;;2368579;56;21585;-72
2021/12/11 03:37:28;;;;;;;86.25;32.85;;;;;;;;;;2368588;56;21141;-72
2021/12/11 03:39:55;;;;;;;73.55;27.87;;;;;;;;;;2368361;56;21121;-72
2021/12/11 03:42:24;;;;;;;76.82;27.55;;;;;;;;;;2368323;56;21121;-72
2021/12/11 03:44:51;;;;;;;85.35;30.42;;;;;;;;;;2368759;56;21058;-72
2021/12/11 03:47:23;;;;;;;79.37;29.63;;;;;;;;;;2367668;56;21030;-72
2021/12/11 03:49:50;;;;;;;72.35;26.55;;;;;;;;;;2367541;56;21122;-72
2021/12/11 03:52:17;;;;;;;75.20;27.00;;;;;;;;;;2368459;56;21054;-72
2021/12/11 03:54:46;;;;;;;79.50;29.83;;;;;;;;;;2368218;56;21034;-72
2021/12/11 03:57:15;;;;;;;77.80;29.35;;;;;;;;;;2368758;56;21175;-71
2021/12/11 03:59:42;;;;;;;79.95;32.65;;;;;;;;;;2368482;56;21042;-72
2021/12/11 04:02:11;;;;;;;77.75;27.77;;;;;;;;;;2368856;56;21117;-72
2021/12/11 04:04:40;;;;;;;79.43;29.73;;;;;;;;;;2368936;56;21097;-72
2021/12/11 04:07:09;;;;;;;67.87;27.05;;;;;;;;;;2368926;56;21201;-72
2021/12/11 04:09:36;;;;;;;79.75;30.08;;;;;;;;;;2367997;56;21133;-72
2021/12/11 04:12:04;;;;;;;76.15;29.02;;;;;;;;;;2368723;56;21517;-72
2021/12/11 04:14:34;;;;;;;80.95;30.23;;;;;;;;;;2368789;56;21129;-72
2021/12/11 04:17:03;;;;;;;84.55;31.85;;;;;;;;;;2368256;56;21061;-72
2021/12/11 04:19:31;;;;;;;67.37;27.17;;;;;;;;;;2402536;53;21522;-72
2021/12/11 04:21:58;;;;;;;79.95;30.33;;;;;;;;;;2368329;56;21066;-72
2021/12/11 04:24:26;;;;;;;81.05;30.60;;;;;;;;;;2501861;53;70823;-79
2021/12/11 04:26:54;;;;;;;86.07;29.12;;;;;;;;;;2332023;57;21106;-79
2021/12/11 04:29:21;;;;;;;76.35;30.25;;;;;;;;;;2331819;57;21065;-77
2021/12/11 04:31:48;;;;;;;76.82;28.73;;;;;;;;;;2575969;53;21038;-80
2021/12/11 04:34:18;;;;;;;86.93;31.12;;;;;;;;;;2356185;56;22141;-79
2021/12/11 04:36:46;;;;;;;73.72;28.60;;;;;;;;;;2369410;56;21089;-79
2021/12/11 04:39:15;;;;;;;74.15;28.58;;;;;;;;;;2369126;56;21118;-78
2021/12/11 04:41:53;;;;;;;84.53;29.67;;;;;;;;;;2621641;52;21051;-79
2021/12/11 04:44:23;;;;;;;75.82;28.77;;;;;;;;;;2369701;56;21113;-79
2021/12/11 04:46:52;;;;;;;93.22;31.37;;;;;;;;;;2369245;56;21125;-79
2021/12/11 04:49:28;;;;;;;76.70;31.50;;;;;;;;;;2368893;56;21038;-79
2021/12/11 04:52:03;;;;;;;71.90;27.13;;;;;;;;;;2369490;56;21050;-79
2021/12/11 04:54:45;;;;;;;80.93;29.73;;;;;;;;;;2369738;56;21074;-78
2021/12/11 05:00:08;;;;;;;70.35;28.25;;;;;;;;;;2369325;56;20986;-79
2021/12/11 05:02:59;;;;;;;75.57;28.52;;;;;;;;;;2621578;52;21046;-79
2021/12/11 05:05:44;;;;;;;87.35;31.98;;;;;;;;;;2369776;56;21181;-79
2021/12/11 05:08:47;;;;;;;74.85;28.10;;;;;;;;;;2369516;56;21085;-79
2021/12/11 05:11:16;;;;;;;75.18;26.35;;;;;;;;;;2369914;56;21038;-79
2021/12/11 05:13:44;;;;;;;77.43;29.45;;;;;;;;;;2369639;56;21114;-79
2021/12/11 05:16:12;;;;;;;78.75;30.25;;;;;;;;;;2620996;53;21065;-79
2021/12/11 05:18:41;;;;;;;73.35;27.35;;;;;;;;;;2369417;56;21113;-79
2021/12/11 05:21:10;;;;;;;78.00;31.30;;;;;;;;;;2369126;56;21177;-79
2021/12/11 05:23:37;;;;;;;65.53;25.60;;;;;;;;;;2369580;56;21137;-79
2021/12/11 05:26:04;;;;;;;70.03;25.52;;;;;;;;;;2369552;56;21578;-79
2021/12/11 05:28:32;;;;;;;78.05;28.58;;;;;;;;;;2369861;56;21050;-79
2021/12/11 05:31:01;;;;;;;75.85;28.65;;;;;;;;;;2369280;56;21117;-78
2021/12/11 05:33:28;;;;;;;78.47;31.67;;;;;;;;;;2369264;56;21058;-79
2021/12/11 05:35:55;;;;;;;67.50;26.23;;;;;;;;;;2369657;56;21046;-78
2021/12/11 05:38:23;;;;;;;72.00;26.37;;;;;;;;;;2369416;56;21121;-79
2021/12/11 05:40:52;;;;;;;74.55;28.40;;;;;;;;;;2621470;52;21061;-78
2021/12/11 05:43:19;;;;;;;81.25;28.50;;;;;;;;;;2369322;56;21089;-79
2021/12/11 05:45:47;;;;;;;68.37;26.60;;;;;;;;;;2369659;56;21098;-79
2021/12/11 05:48:15;;;;;;;70.10;26.77;;;;;;;;;;2620798;52;21041;-79
2021/12/11 05:50:44;;;;;;;74.20;27.60;;;;;;;;;;2367790;56;21070;-79
2021/12/11 05:53:11;;;;;;;71.93;28.12;;;;;;;;;;2621376;52;21106;-79
2021/12/11 05:55:39;;;;;;;73.15;27.35;;;;;;;;;;2621438;52;21053;-80
2021/12/11 05:58:11;;;;;;;69.37;26.20;;;;;;;;;;2369485;56;21090;-79
2021/12/11 06:00:40;;;;;;;63.78;25.33;;;;;;;;;;2369176;56;21045;-78
2021/12/11 06:03:08;;;;;;;68.78;27.70;;;;;;;;;;2369352;56;21058;-79
2021/12/11 06:05:35;;;;;;;68.28;25.83;;;;;;;;;;2369556;56;21046;-79
2021/12/11 06:08:03;;;;;;;69.87;26.55;;;;;;;;;;2369257;56;21079;-79
2021/12/11 06:10:30;;;;;;;71.62;29.05;;;;;;;;;;2369333;56;21098;-78
2021/12/11 06:12:58;;;;;;;68.12;28.15;;;;;;;;;;2369427;56;21145;-80
2021/12/11 06:15:26;;;;;;;74.40;27.55;;;;;;;;;;2369150;56;21324;-79
2021/12/11 06:17:53;;;;;;;65.62;26.95;;;;;;;;;;2369302;56;21124;-79
2021/12/11 06:20:23;;;;;;;67.65;25.80;;;;;;;;;;2368847;56;21120;-79
2021/12/11 06:22:50;;;;;;;63.90;25.95;;;;;;;;;;2621555;52;21062;-79
2021/12/11 06:25:19;;;;;;;70.80;28.15;;;;;;;;;;2369252;56;21105;-78
2021/12/11 06:27:46;;;;;;;72.72;27.25;;;;;;;;;;2369304;56;21153;-78
2021/12/11 06:30:14;;;;;;;66.32;25.52;;;;;;;;;;2369092;56;21058;-79
2021/12/11 06:32:41;;;;;;;56.13;23.38;;;;;;;;;;2369054;56;21042;-78
2021/12/11 06:35:11;;;;;;;72.80;28.02;;;;;;;;;;2369327;56;21042;-78
2021/12/11 06:37:38;;;;;;;67.60;26.08;;;;;;;;;;2621674;53;21034;-79
2021/12/11 06:40:07;;;;;;;76.20;28.20;;;;;;;;;;2368495;56;21573;-79
2021/12/11 06:42:34;;;;;;;73.25;27.02;;;;;;;;;;2369321;56;21066;-79
2021/12/11 06:45:01;;;;;;;75.37;27.87;;;;;;;;;;2369132;56;21050;-79
2021/12/11 06:47:28;;;;;;;65.60;28.73;;;;;;;;;;2369186;56;21071;-79
2021/12/11 06:49:55;;;;;;;68.03;25.08;;;;;;;;;;2368750;56;21097;-79
2021/12/11 06:52:23;;;;;;;64.97;25.98;;;;;;;;;;2369255;56;21054;-79
2021/12/11 06:54:51;;;;;;;67.12;27.35;;;;;;;;;;2369058;56;21141;-79
2021/12/11 06:57:18;;;;;;;66.35;25.92;;;;;;;;;;2621204;52;21105;-79
2021/12/11 06:59:47;;;;;;;66.85;26.70;;;;;;;;;;2621287;52;21101;-79
2021/12/11 07:02:15;;;;;;;69.32;26.98;;;;;;;;;;2621443;53;21109;-79
2021/12/11 07:04:42;;;;;;;69.75;28.20;;;;;;;;;;2368813;56;21038;-79
2021/12/11 07:07:10;;;;;;;70.40;26.60;;;;;;;;;;2621255;53;21178;-80
2021/12/11 07:09:38;;;;;;;64.25;25.35;;;;;;;;;;2622956;52;21054;-79
2021/12/11 07:12:06;;;;;;;56.78;24.12;;;;;;;;;;2623238;53;21102;-80
2021/12/11 07:14:33;;;;;;;58.53;24.50;;;;;;;;;;2622762;52;21113;-79
2021/12/11 07:17:00;;;;;;;68.55;27.02;;;;;;;;;;2370747;56;21138;-79
2021/12/11 07:19:27;;;;;;;69.28;27.23;;;;;;;;;;2622527;53;21054;-80
2021/12/11 07:21:55;;;;;;;66.62;26.55;;;;;;;;;;2370667;56;21093;-79
2021/12/11 07:24:23;;;;;;;67.50;26.02;;;;;;;;;;2622929;52;21078;-80
2021/12/11 07:26:50;;;;;;;68.80;26.80;;;;;;;;;;2370757;56;21046;-80
2021/12/11 07:29:19;;;;;;;75.43;27.60;;;;;;;;;;2622876;52;21042;-80
2021/12/11 07:31:48;;;;;;;78.45;28.40;;;;;;;;;;2370396;56;21038;-80
2021/12/11 07:34:16;;;;;;;76.72;27.13;;;;;;;;;;2370027;56;21192;-79
2021/12/11 07:36:43;;;;;;;77.40;28.90;;;;;;;;;;2622156;52;21110;-79
2021/12/11 07:39:11;;;;;;;73.78;27.30;;;;;;;;;;2370200;56;21058;-80
2021/12/11 07:41:38;;;;;;;70.32;26.50;;;;;;;;;;2370823;56;21093;-79
2021/12/11 07:44:06;;;;;;;65.25;25.33;;;;;;;;;;2370467;56;21030;-80
2021/12/11 07:46:34;;;;;;;70.15;25.33;;;;;;;;;;2370099;56;21073;-79
2021/12/11 07:49:03;;;;;;;76.75;29.08;;;;;;;;;;2369350;56;21089;-78
2021/12/11 07:51:30;;;;;;;72.20;26.77;;;;;;;;;;2622210;52;21125;-79
2021/12/11 07:53:57;;;;;;;71.28;25.37;;;;;;;;;;2622431;52;21026;-79
2021/12/11 07:56:25;;;;;;;75.95;27.73;;;;;;;;;;2370179;56;21058;-79
2021/12/11 07:58:54;;;;;;;83.30;29.55;;;;;;;;;;2621832;53;21153;-79
2021/12/11 08:01:22;;;;;;;63.03;24.33;;;;;;;;;;2621108;52;21034;-78
2021/12/11 08:03:49;;;;;;;76.37;27.67;;;;;;;;;;2621503;52;21070;-78
2021/12/11 08:06:16;;;;;;;73.60;28.98;;;;;;;;;;2369634;56;21073;-78
2021/12/11 08:08:44;;;;;;;62.40;24.70;;;;;;;;;;2369686;56;21197;-78
2021/12/11 08:11:13;;;;;;;72.57;25.08;;;;;;;;;;2369602;56;21061;-78
2021/12/11 08:13:40;;;;;;;65.93;26.20;;;;;;;;;;2369481;56;21137;-78
2021/12/11 08:16:08;;;;;;;67.28;25.48;;;;;;;;;;2369638;56;21158;-79
2021/12/11 08:18:35;;;;;;;66.97;25.33;;;;;;;;;;2369828;56;21038;-78
2021/12/11 08:21:02;;;;;;;68.93;26.27;;;;;;;;;;2369508;56;21053;-78
2021/12/11 08:23:29;;;;;;;62.33;24.98;;;;;;;;;;2621738;52;21559;-79
2021/12/11 08:25:57;;;;;;;54.22;22.48;;;;;;;;;;2621666;52;21122;-77
2021/12/11 08:28:26;;;;;;;49.97;22.67;;;;;;;;;;2621320;53;21054;-78
2021/12/11 08:30:54;;;;;;;67.90;25.48;;;;;;;;;;2621200;53;21046;-79
2021/12/11 08:33:22;;;;;;;67.25;25.65;;;;;;;;;;2622107;52;21125;-79
2021/12/11 08:35:49;;;;;;;68.37;26.35;;;;;;;;;;2369582;56;21097;-79
2021/12/11 08:38:18;;;;;;;71.47;26.00;;;;;;;;;;2370064;56;21039;-79
2021/12/11 08:40:47;;;;;;;63.47;25.30;;;;;;;;;;2621931;53;21058;-79
2021/12/11 08:43:15;;;;;;;64.87;23.95;;;;;;;;;;2369954;56;21140;-79
2021/12/11 08:45:48;;;;;;;67.87;27.05;;;;;;;;;;2369946;56;21546;-80
2021/12/11 08:48:16;;;;;;;57.90;24.20;;;;;;;;;;2369864;56;21121;-78
2021/12/11 08:50:44;;;;;;;61.08;24.60;;;;;;;;;;2369568;56;21054;-79
2021/12/11 08:53:11;;;;;;;59.85;23.83;;;;;;;;;;2369778;56;21526;-80
2021/12/11 08:55:42;;;;;;;61.22;24.50;;;;;;;;;;2622242;52;21038;-79
2021/12/11 08:58:10;;;;;;;53.97;21.92;;;;;;;;;;2370004;56;21058;-79
2021/12/11 09:00:39;;;;;;;56.08;22.70;;;;;;;;;;2621722;53;21058;-79
2021/12/11 09:03:10;;;;;;;60.63;25.48;;;;;;;;;;2369866;56;21133;-80
2021/12/11 09:05:39;;;;;;;56.95;22.85;;;;;;;;;;2369992;56;21049;-79
2021/12/11 09:08:10;;;;;;;53.92;24.00;;;;;;;;;;2369910;56;21074;-81
2021/12/11 09:10:40;;;;;;;60.58;23.42;;;;;;;;;;2621623;53;21058;-79
2021/12/11 09:13:09;;;;;;;51.53;22.40;;;;;;;;;;2369916;56;21097;-79
2021/12/11 09:15:39;;;;;;;57.38;20.52;;;;;;;;;;2622192;53;21113;-79
2021/12/11 09:18:07;;;;;;;53.10;21.17;;;;;;;;;;2622326;53;21038;-79
2021/12/11 09:20:37;;;;;;;57.42;23.08;;;;;;;;;;2369442;56;21038;-79
2021/12/11 09:23:06;;;;;;;54.78;21.60;;;;;;;;;;2622102;52;21093;-79
2021/12/11 09:25:38;;;;;;;59.55;22.98;;;;;;;;;;2621883;53;21134;-79
2021/12/11 09:28:07;;;;;;;50.45;20.10;;;;;;;;;;2622327;52;21065;-79
2021/12/11 09:30:37;;;;;;;56.28;23.73;;;;;;;;;;2369785;56;21506;-79
2021/12/11 09:33:06;;;;;;;56.92;22.30;;;;;;;;;;2369698;56;21046;-80
2021/12/11 09:35:34;;;;;;;51.78;21.23;;;;;;;;;;2369737;56;21101;-80
2021/12/11 09:38:05;;;;;;;47.97;19.83;;;;;;;;;;2368574;56;21122;-78
2021/12/11 09:40:50;;;;;;;55.20;22.15;;;;;;;;;;2369806;56;21712;-79
2021/12/11 09:43:26;;;;;;;54.08;21.75;;;;;;;;;;2369848;56;21050;-77
2021/12/11 09:45:53;;;;;;;50.83;20.37;;;;;;;;;;2370057;56;21050;-77
2021/12/11 09:48:20;;;;;;;53.67;22.87;;;;;;;;;;2621569;52;21093;-78
2021/12/11 09:50:54;;;;;;;54.90;23.20;;;;;;;;;;2368786;56;21121;-79
2021/12/11 09:53:24;;;;;;;50.15;20.27;;;;;;;;;;2370154;56;21078;-79
2021/12/11 09:55:51;;;;;;;54.70;23.42;;;;;;;;;;2368879;56;21085;-78
2021/12/11 09:58:20;;;;;;;49.92;22.20;;;;;;;;;;2369997;56;21133;-79
2021/12/11 10:00:49;;;;;;;47.85;22.80;;;;;;;;;;2622035;52;21037;-78
2021/12/11 10:03:18;;;;;;;50.67;22.23;;;;;;;;;;2622112;52;21042;-78
2021/12/11 10:05:49;;;;;;;51.17;21.65;;;;;;;;;;2369848;56;21042;-79
2021/12/11 10:08:27;;;;;;;47.85;20.90;;;;;;;;;;2369931;56;21121;-79
2021/12/11 10:10:58;;;;;;;50.72;20.42;;;;;;;;;;2369817;56;21129;-79
2021/12/11 10:13:26;;;;;;;49.47;20.75;;;;;;;;;;2369229;56;21129;-77
2021/12/11 10:15:53;;;;;;;45.12;20.23;;;;;;;;;;2621765;53;21158;-78
2021/12/11 10:18:22;;;;;;;50.75;20.58;;;;;;;;;;2368939;56;21125;-78
2021/12/11 10:20:51;;;;;;;50.88;21.92;;;;;;;;;;2368716;56;21061;-77
2021/12/11 10:23:20;;;;;;;47.62;19.92;;;;;;;;;;2366816;54;21061;-80
2021/12/11 10:25:48;;;;;;;49.67;21.92;;;;;;;;;;2333934;57;21050;-80
2021/12/11 10:28:18;;;;;;;45.05;21.37;;;;;;;;;;2333878;57;21041;-80
2021/12/11 10:30:46;;;;;;;46.13;20.85;;;;;;;;;;2350293;53;21109;-79
2021/12/11 10:33:14;;;;;;;41.55;18.73;;;;;;;;;;2358514;53;21042;-76
2021/12/11 10:35:42;;;;;;;46.40;20.73;;;;;;;;;;2375158;53;21557;-77
2021/12/11 10:38:09;;;;;;;45.92;20.95;;;;;;;;;;2372646;53;21050;-80
2021/12/11 10:40:38;;;;;;;45.67;19.67;;;;;;;;;;2370494;54;21554;-80
2021/12/11 10:43:07;;;;;;;47.13;18.92;;;;;;;;;;2384752;53;21101;-80
2021/12/11 10:45:34;;;;;;;45.45;20.95;;;;;;;;;;2370769;56;21062;-81
2021/12/11 10:48:05;;;;;;;41.17;18.30;;;;;;;;;;2370737;56;21641;-80
2021/12/11 10:50:34;;;;;;;44.60;20.85;;;;;;;;;;2370319;56;21546;-80
2021/12/11 10:53:03;;;;;;;48.35;20.15;;;;;;;;;;2370750;56;21117;-81
2021/12/11 10:55:32;;;;;;;47.78;20.50;;;;;;;;;;2370209;56;21105;-81
2021/12/11 10:58:03;;;;;;;45.22;20.10;;;;;;;;;;2370667;56;21606;-80
2021/12/11 11:00:32;;;;;;;39.05;17.83;;;;;;;;;;2370260;56;21547;-80
2021/12/11 11:02:58;;;;;;;37.63;17.83;;;;;;;;;;2370418;56;21370;-80
2021/12/11 11:05:27;;;;;;;37.67;17.58;;;;;;;;;;2373954;53;21070;-81
2021/12/11 11:07:54;;;;;;;42.72;19.83;;;;;;;;;;2373391;53;21122;-79
2021/12/11 11:10:23;;;;;;;40.58;15.73;;;;;;;;;;2389912;53;21038;-79
2021/12/11 11:12:53;;;;;;;33.40;15.60;;;;;;;;;;2370320;56;21138;-79
2021/12/11 11:15:21;;;;;;;35.90;16.17;;;;;;;;;;2369709;54;21196;-78
2021/12/11 11:17:48;;;;;;;35.63;17.30;;;;;;;;;;2411523;53;21101;-79
2021/12/11 11:20:18;;;;;;;32.80;16.35;;;;;;;;;;2369863;53;21425;-80
2021/12/11 11:22:45;;;;;;;34.83;15.00;;;;;;;;;;2369951;56;21069;-78
2021/12/11 11:25:14;;;;;;;36.83;16.87;;;;;;;;;;2369089;56;21106;-80
2021/12/11 11:27:43;;;;;;;36.70;15.13;;;;;;;;;;2375945;53;21153;-85
2021/12/11 11:30:14;;;;;;;34.90;14.13;;;;;;;;;;2387253;53;21408;-83
2021/12/11 11:32:41;;;;;;;29.95;14.60;;;;;;;;;;2369401;55;21185;-82
2021/12/11 11:35:11;;;;;;;32.00;15.48;;;;;;;;;;2382928;53;21038;-81
2021/12/11 11:37:38;;;;;;;33.92;14.18;;;;;;;;;;2379193;53;21137;-83
2021/12/11 11:40:07;;;;;;;29.75;14.52;;;;;;;;;;2369724;56;21109;-82
2021/12/11 11:42:35;;;;;;;25.20;13.30;;;;;;;;;;2369530;56;21065;-80
2021/12/11 11:45:05;;;;;;;29.40;14.80;;;;;;;;;;2376323;53;21061;-82
2021/12/11 11:47:33;;;;;;;30.30;14.30;;;;;;;;;;2370096;56;21129;-81
2021/12/11 11:50:02;;;;;;;30.05;14.35;;;;;;;;;;2379510;53;21038;-82
2021/12/11 11:52:29;;;;;;;25.90;13.98;;;;;;;;;;2369890;54;21058;-82
2021/12/11 11:54:59;;;;;;;26.58;13.50;;;;;;;;;;2369919;56;21349;-81
2021/12/11 11:57:27;;;;;;;27.23;13.38;;;;;;;;;;2391242;53;21050;-84
2021/12/11 11:59:55;;;;;;;29.87;13.35;;;;;;;;;;2372265;53;21058;-77
2021/12/11 12:02:24;;;;;;;27.08;13.60;;;;;;;;;;2383659;53;21196;-80
2021/12/11 12:04:52;;;;;;;26.73;13.65;;;;;;;;;;2370174;56;21940;-79
2021/12/11 12:07:25;;;;;;;28.12;12.23;;;;;;;;;;2379431;53;21100;-79
2021/12/11 12:09:54;;;;;;;34.30;13.50;;;;;;;;;;2370587;56;21050;-80
2021/12/11 12:12:22;;;;;;;30.25;15.02;;;;;;;;;;2370141;56;21054;-79
2021/12/11 12:14:49;;;;;;;30.00;14.13;;;;;;;;;;2370540;56;21050;-78
2021/12/11 12:17:19;;;;;;;27.02;13.73;;;;;;;;;;2376067;53;21128;-79
2021/12/11 12:19:46;;;;;;;26.40;11.85;;;;;;;;;;2371682;53;21134;-81
2021/12/11 12:22:14;;;;;;;32.75;14.07;;;;;;;;;;2370611;56;21094;-78
2021/12/11 12:24:42;;;;;;;34.83;13.82;;;;;;;;;;2369942;54;21197;-79
2021/12/11 12:27:10;;;;;;;30.23;13.35;;;;;;;;;;2370380;56;21038;-80
2021/12/11 12:29:38;;;;;;;26.92;12.57;;;;;;;;;;2410110;53;21093;-79
2021/12/11 12:32:09;;;;;;;26.12;13.75;;;;;;;;;;2369946;56;21085;-80
2021/12/11 12:34:36;;;;;;;23.00;12.50;;;;;;;;;;2370564;56;21077;-80
2021/12/11 12:37:03;;;;;;;25.50;12.23;;;;;;;;;;2370634;55;21062;-80
2021/12/11 12:39:37;;;;;;;25.70;13.40;;;;;;;;;;2370154;56;21542;-82
2021/12/11 12:42:16;;;;;;;20.77;12.73;;;;;;;;;;2384419;53;21065;-80
2021/12/11 12:44:44;;;;;;;107.72;18.92;;;;;;;;;;2398920;53;21046;-82
2021/12/11 12:47:13;;;;;;;24.90;11.52;;;;;;;;;;2369829;56;21050;-78
2021/12/11 12:49:41;;;;;;;19.85;10.68;;;;;;;;;;2369565;56;21613;-78
2021/12/11 12:52:10;;;;;;;21.98;11.45;;;;;;;;;;2376566;53;21110;-78
2021/12/11 12:54:37;;;;;;;24.17;10.93;;;;;;;;;;2376255;53;21086;-79
2021/12/11 12:57:11;;;;;;;21.55;10.82;;;;;;;;;;2389459;53;21125;-78
2021/12/11 12:59:40;;;;;;;23.05;11.80;;;;;;;;;;2381510;52;21089;-78
2021/12/11 13:02:11;;;;;;;28.75;12.85;;;;;;;;;;2396705;53;21100;-77
2021/12/11 13:04:40;;;;;;;26.35;12.85;;;;;;;;;;2369766;56;21082;-77
2021/12/11 13:07:09;;;;;;;26.77;13.38;;;;;;;;;;2370467;53;21057;-78
2021/12/11 13:09:41;;;;;;;22.37;12.35;;;;;;;;;;2369301;53;21632;-77
2021/12/11 13:12:09;;;;;;;20.92;9.77;;;;;;;;;;2370201;56;21097;-82
2021/12/11 13:14:37;;;;;;;22.52;11.75;;;;;;;;;;2369654;56;21228;-82
2021/12/11 13:17:06;;;;;;;26.77;12.37;;;;;;;;;;2376728;53;21105;-82
2021/12/11 13:19:36;;;;;;;18.85;10.85;;;;;;;;;;2369567;56;22211;-81
2021/12/11 13:22:07;;;;;;;23.87;11.88;;;;;;;;;;2369826;56;21066;-81
2021/12/11 13:24:34;;;;;;;18.95;9.85;;;;;;;;;;2369959;56;21070;-83
2021/12/11 13:27:02;;;;;;;19.85;11.18;;;;;;;;;;2377142;53;21054;-82
2021/12/11 13:29:32;;;;;;;21.62;11.85;;;;;;;;;;2369320;56;21053;-81
2021/12/11 13:32:01;;;;;;;22.33;11.63;;;;;;;;;;2369820;56;21205;-81
2021/12/11 13:34:29;;;;;;;21.23;10.52;;;;;;;;;;2372927;53;21034;-81
2021/12/11 13:36:57;;;;;;;20.58;9.93;;;;;;;;;;2370045;56;21046;-81
2021/12/11 13:39:25;;;;;;;22.75;11.27;;;;;;;;;;2369816;56;21045;-82
2021/12/11 13:41:59;;;;;;;23.85;11.55;;;;;;;;;;2369305;56;21132;-82
2021/12/11 13:44:28;;;;;;;19.25;8.57;;;;;;;;;;2370095;56;21113;-82
2021/12/11 13:46:55;;;;;;;20.50;8.98;;;;;;;;;;2369914;54;21065;-81
2021/12/11 13:49:22;;;;;;;20.55;10.55;;;;;;;;;;2369687;56;21129;-81
2021/12/11 13:51:49;;;;;;;19.17;8.75;;;;;;;;;;2370094;56;21058;-82
2021/12/11 13:54:16;;;;;;;23.65;10.05;;;;;;;;;;2373635;53;21126;-82
2021/12/11 13:56:44;;;;;;;17.83;9.35;;;;;;;;;;2392212;53;21038;-81
2021/12/11 13:59:12;;;;;;;19.60;9.10;;;;;;;;;;2371904;53;21030;-81
2021/12/11 14:01:40;;;;;;;17.90;9.90;;;;;;;;;;2370718;56;21161;-82
2021/12/11 14:04:09;;;;;;;17.75;9.43;;;;;;;;;;2370796;56;21058;-83
2021/12/11 14:06:47;;;;;;;18.50;8.40;;;;;;;;;;2391167;53;21102;-81
2021/12/11 14:09:15;;;;;;;16.10;8.05;;;;;;;;;;2370379;56;21074;-82
2021/12/11 14:11:42;;;;;;;17.05;8.40;;;;;;;;;;2369755;56;21046;-81
2021/12/11 14:14:11;;;;;;;14.57;8.18;;;;;;;;;;2376530;53;21407;-82
2021/12/11 14:16:39;;;;;;;16.83;8.48;;;;;;;;;;2371307;53;21054;-81
2021/12/11 14:19:06;;;;;;;14.25;6.95;;;;;;;;;;2375605;53;21054;-82
2021/12/11 14:21:34;;;;;;;20.98;9.18;;;;;;;;;;2371950;56;21054;-83
2021/12/11 14:24:03;;;;;;;17.12;9.00;;;;;;;;;;2373030;54;21070;-82
2021/12/11 14:26:30;;;;;;;17.60;8.63;;;;;;;;;;2372865;52;21069;-81
2021/12/11 14:28:58;;;;;;;15.85;8.18;;;;;;;;;;2378821;53;21220;-82
2021/12/11 14:31:27;;;;;;;17.90;9.88;;;;;;;;;;2388521;53;21141;-81